DAUH/HME METAR and TAF weather

Enter ICAO airport designator
Station Type Date Time Source
DAUH METAR 2022/01/19 20:00 UTC NOAA

DAUH 192000Z 06004KT CAVOK 10/M01 Q1029


Station Type Date Time Source
DAUH Decoded METAR 2022/01/19 20:00 UTC NOAA

Hassi-Messaoud, Algeria (DAUH) 31-40N 006-09E 142M
Jan 19, 2022 - 03:00 PM EST / 2022.01.19 2000 UTC
Wind: from the ENE (060 degrees) at 5 MPH (4 KT):0
Visibility: greater than 7 mile(s):0
Temperature: 50 F (10 C)
Dew Point: 30 F (-1 C)
Relative Humidity: 46%
Pressure (altimeter): 30.39 in. Hg (1029 hPa)
ob: DAUH 192000Z 06004KT CAVOK 10/M01 Q1029
cycle: 20

Station Type Date Time Source
DAUH TAF 2022/01/19 18:40 UTC NOAA

TAF DAUH 191700Z 1918/2018 VRB02KT CAVOK

Example: see airport list